Gold Beach, OR

12:07 PM PDT on September 20, 2014 (GMT -0700)
Weather Hawk | Change Station
CLOSE
Current Station
Personal Weather Station
Location: Gold Beach, OR
Elevation: 128 ft
Nearby Weather Stations

Elev 128 ft 42.53 °N, 124.39 °W | Updated 4 seconds ago

Mostly Cloudy
Mostly Cloudy
70.2 °F
Feels Like 74 °F
N
2.2
Wind Variable Wind from NE
Gusts 4.5 mph

Today
High -- | Low -- °F
--% Chance of Precip.
Yesterday
High -- | Low -- °F
Precip. -- in
7:02 AM 7:18 PM
Waning Crescent, 11% visible
Pressure 29.94 in
Visibility 0.2 miles
Clouds Overcast 100 ft
Heat Index 74 °F
Dew Point 59 °F
Humidity 68%
Rainfall 0.00 in
Snow Depth 0 in , 0 in , 0 in
UV 2 out of 12
Pollen 4.10 out of 12
Air Quality Not available.
Flu Activity Not available.
METAR KBOK 201856Z AUTO 17005KT M1/4SM FG OVC001 15/14 A2993 RMK AO2 T01500144 SLP136

More Conditions Fewer Conditions

Pressure 29.94 in
Visibility 0.2 miles
Clouds Overcast 100 ft
Heat Index 74 °F
Dew Point 59 °F
Humidity 68%
Rainfall 0.00 in
Snow Depth 0 in , 0 in , 0 in
UV 2 out of 12
Pollen 4.10 out of 12
Air Quality Not available.
Flu Activity Not available.
METAR KBOK 201856Z AUTO 17005KT M1/4SM FG OVC001 15/14 A2993 RMK AO2 T01500144 SLP136

More Conditions Fewer Conditions

10-Day Weather Forecast

Almanac

Astronomy

Sep. 20, 2014 Rise Set
Actual Time 7:02 AM PDT 7:18 PM PDT
Civil Twilight 6:34 AM PDT 7:46 PM PDT
Nautical Twilight 6:01 AM PDT 8:19 PM PDT
Astronomical Twilight 5:27 AM PDT 8:52 PM PDT
Moon 3:44 AM PDT 5:27 PM PDT
Length of Visible Light 13h 11m
Length of Day
12h 15m
Tomorrow will be 2m 51s shorter.
Waning Crescent, 11% of the Moon is Illuminated
Today
Waning Crescent
Sep 24
New
Oct 1
First Quarter
Oct 8
Full
Oct 15
Last Quarter

Today's Extremes

State Highs State Lows

Community

WunderPhotos

Upload Photos

1,754,924 photos uploaded!

WunderBlogs® & News

Nearby

Snow Depth

Station Depth Elevation
Red Hill 0 in 4400 ft
Schneider Meadows 0 in 5400 ft
Irish Taylor 0 in 5500 ft
Peavine Ridge 0 in 3500 ft
Sevenmile Marsh 0 in 6200 ft

Earthquake Activity

City Distance Mag. Time & Date
No recent earthquake activity has been reported nearby.
Minimum magnitude displayed is 2.5.

Coastal Water Temperatures

Place Temperature
Port Orford, OR 53.1 °F
Crescent City, CA 64.0 °F
Charleston, OR 53.1 °F

Nearby Weather Stations